sensor_id;sensor_type;location;lat;lon;timestamp;pressure;altitude;pressure_sealevel;temperature;humidity
67373;BME280;54257;54.496;18.412;2023-03-14T00:01:17;97318.95;;;8.81;100.00
67373;BME280;54257;54.496;18.412;2023-03-14T00:03:45;97329.83;;;8.81;100.00
67373;BME280;54257;54.496;18.412;2023-03-14T00:06:19;97329.69;;;8.80;100.00
67373;BME280;54257;54.496;18.412;2023-03-14T00:08:46;97332.41;;;8.80;100.00
67373;BME280;54257;54.496;18.412;2023-03-14T00:11:19;97339.57;;;8.79;100.00
67373;BME280;54257;54.496;18.412;2023-03-14T00:13:50;97332.08;;;8.79;100.00
67373;BME280;54257;54.496;18.412;2023-03-14T00:16:19;97331.42;;;8.77;100.00
67373;BME280;54257;54.496;18.412;2023-03-14T00:18:46;97332.63;;;8.77;100.00
67373;BME280;54257;54.496;18.412;2023-03-14T00:21:13;97334.48;;;8.78;100.00
67373;BME280;54257;54.496;18.412;2023-03-14T00:23:41;97335.03;;;8.76;100.00
67373;BME280;54257;54.496;18.412;2023-03-14T00:26:12;97334.14;;;8.78;100.00
67373;BME280;54257;54.496;18.412;2023-03-14T00:28:41;97322.05;;;8.78;100.00
67373;BME280;54257;54.496;18.412;2023-03-14T00:31:10;97322.19;;;8.80;100.00
67373;BME280;54257;54.496;18.412;2023-03-14T00:33:38;97327.12;;;8.81;100.00
67373;BME280;54257;54.496;18.412;2023-03-14T00:36:09;97326.04;;;8.83;100.00
67373;BME280;54257;54.496;18.412;2023-03-14T00:38:42;97310.40;;;8.83;100.00
67373;BME280;54257;54.496;18.412;2023-03-14T00:41:15;97309.02;;;8.83;100.00
67373;BME280;54257;54.496;18.412;2023-03-14T00:43:46;97317.73;;;8.82;100.00
67373;BME280;54257;54.496;18.412;2023-03-14T00:46:13;97310.92;;;8.82;100.00
67373;BME280;54257;54.496;18.412;2023-03-14T00:48:40;97310.40;;;8.83;100.00
67373;BME280;54257;54.496;18.412;2023-03-14T00:51:08;97313.77;;;8.84;100.00
67373;BME280;54257;54.496;18.412;2023-03-14T00:53:37;97317.20;;;8.84;100.00
67373;BME280;54257;54.496;18.412;2023-03-14T00:56:11;97312.29;;;8.82;100.00
67373;BME280;54257;54.496;18.412;2023-03-14T00:58:39;97315.21;;;8.80;100.00
67373;BME280;54257;54.496;18.412;2023-03-14T01:03:36;97322.18;;;8.81;100.00
67373;BME280;54257;54.496;18.412;2023-03-14T01:06:18;97313.67;;;8.81;100.00
67373;BME280;54257;54.496;18.412;2023-03-14T01:08:47;97308.38;;;8.82;100.00
67373;BME280;54257;54.496;18.412;2023-03-14T01:11:20;97299.53;;;8.82;100.00
67373;BME280;54257;54.496;18.412;2023-03-14T01:13:48;97288.59;;;8.84;100.00
67373;BME280;54257;54.496;18.412;2023-03-14T01:16:15;97299.16;;;8.83;100.00
67373;BME280;54257;54.496;18.412;2023-03-14T01:18:44;97300.31;;;8.84;100.00
67373;BME280;54257;54.496;18.412;2023-03-14T01:21:17;97300.84;;;8.84;100.00
67373;BME280;54257;54.496;18.412;2023-03-14T01:23:45;97300.53;;;8.83;100.00
67373;BME280;54257;54.496;18.412;2023-03-14T01:26:15;97299.52;;;8.82;100.00
67373;BME280;54257;54.496;18.412;2023-03-14T01:28:42;97287.95;;;8.82;100.00
67373;BME280;54257;54.496;18.412;2023-03-14T01:31:10;97287.48;;;8.81;100.00
67373;BME280;54257;54.496;18.412;2023-03-14T01:33:38;97296.35;;;8.78;100.00
67373;BME280;54257;54.496;18.412;2023-03-14T01:36:08;97299.92;;;8.79;100.00
67373;BME280;54257;54.496;18.412;2023-03-14T01:38:38;97291.92;;;8.79;100.00
67373;BME280;54257;54.496;18.412;2023-03-14T01:41:06;97287.35;;;8.77;100.00
67373;BME280;54257;54.496;18.412;2023-03-14T01:43:34;97290.63;;;8.76;100.00
67373;BME280;54257;54.496;18.412;2023-03-14T01:48:37;97286.59;;;8.74;100.00
67373;BME280;54257;54.496;18.412;2023-03-14T01:51:08;97280.83;;;8.73;100.00
67373;BME280;54257;54.496;18.412;2023-03-14T01:53:37;97276.73;;;8.73;100.00
67373;BME280;54257;54.496;18.412;2023-03-14T01:56:07;97265.34;;;8.72;100.00
67373;BME280;54257;54.496;18.412;2023-03-14T01:58:37;97260.06;;;8.72;100.00
67373;BME280;54257;54.496;18.412;2023-03-14T02:01:06;97260.77;;;8.70;100.00
67373;BME280;54257;54.496;18.412;2023-03-14T02:03:48;97261.45;;;8.70;100.00
67373;BME280;54257;54.496;18.412;2023-03-14T02:06:20;97244.42;;;8.71;100.00
67373;BME280;54257;54.496;18.412;2023-03-14T02:08:48;97238.82;;;8.70;100.00
67373;BME280;54257;54.496;18.412;2023-03-14T02:11:17;97247.88;;;8.68;100.00
67373;BME280;54257;54.496;18.412;2023-03-14T02:13:44;97239.73;;;8.67;100.00
67373;BME280;54257;54.496;18.412;2023-03-14T02:16:12;97246.05;;;8.66;100.00
67373;BME280;54257;54.496;18.412;2023-03-14T02:18:39;97247.94;;;8.66;100.00
67373;BME280;54257;54.496;18.412;2023-03-14T02:21:23;97241.48;;;8.65;100.00
67373;BME280;54257;54.496;18.412;2023-03-14T02:27:06;97256.52;;;8.62;100.00
67373;BME280;54257;54.496;18.412;2023-03-14T02:29:39;97244.61;;;8.61;100.00
67373;BME280;54257;54.496;18.412;2023-03-14T02:32:10;97232.54;;;8.61;100.00
67373;BME280;54257;54.496;18.412;2023-03-14T02:34:38;97229.67;;;8.60;100.00
67373;BME280;54257;54.496;18.412;2023-03-14T02:37:11;97221.72;;;8.58;100.00
67373;BME280;54257;54.496;18.412;2023-03-14T02:39:42;97224.30;;;8.57;100.00
67373;BME280;54257;54.496;18.412;2023-03-14T02:42:13;97238.45;;;8.56;100.00
67373;BME280;54257;54.496;18.412;2023-03-14T02:47:43;97238.13;;;8.54;100.00
67373;BME280;54257;54.496;18.412;2023-03-14T02:50:18;97245.66;;;8.52;100.00
67373;BME280;54257;54.496;18.412;2023-03-14T02:52:47;97246.91;;;8.49;100.00
67373;BME280;54257;54.496;18.412;2023-03-14T02:55:14;97253.38;;;8.49;100.00
67373;BME280;54257;54.496;18.412;2023-03-14T02:57:41;97261.04;;;8.49;100.00
67373;BME280;54257;54.496;18.412;2023-03-14T03:00:08;97271.09;;;8.48;100.00
67373;BME280;54257;54.496;18.412;2023-03-14T03:02:35;97269.75;;;8.46;100.00
67373;BME280;54257;54.496;18.412;2023-03-14T03:05:02;97278.09;;;8.46;100.00
67373;BME280;54257;54.496;18.412;2023-03-14T03:07:29;97283.55;;;8.45;100.00
67373;BME280;54257;54.496;18.412;2023-03-14T03:09:56;97287.81;;;8.45;100.00
67373;BME280;54257;54.496;18.412;2023-03-14T03:12:23;97285.25;;;8.45;100.00
67373;BME280;54257;54.496;18.412;2023-03-14T03:14:50;97292.03;;;8.46;100.00
67373;BME280;54257;54.496;18.412;2023-03-14T03:17:17;97294.59;;;8.45;100.00
67373;BME280;54257;54.496;18.412;2023-03-14T03:19:44;97300.08;;;8.44;100.00
67373;BME280;54257;54.496;18.412;2023-03-14T03:22:11;97307.03;;;8.45;100.00
67373;BME280;54257;54.496;18.412;2023-03-14T03:24:38;97312.19;;;8.42;100.00
67373;BME280;54257;54.496;18.412;2023-03-14T03:27:07;97317.19;;;8.38;100.00
67373;BME280;54257;54.496;18.412;2023-03-14T03:29:37;97321.27;;;8.38;100.00
67373;BME280;54257;54.496;18.412;2023-03-14T03:32:04;97327.92;;;8.36;100.00
67373;BME280;54257;54.496;18.412;2023-03-14T03:34:31;97324.20;;;8.35;100.00
67373;BME280;54257;54.496;18.412;2023-03-14T03:36:58;97340.39;;;8.33;100.00
67373;BME280;54257;54.496;18.412;2023-03-14T03:39:25;97337.17;;;8.31;100.00
67373;BME280;54257;54.496;18.412;2023-03-14T03:41:52;97329.55;;;8.29;100.00
67373;BME280;54257;54.496;18.412;2023-03-14T03:44:19;97332.46;;;8.28;100.00
67373;BME280;54257;54.496;18.412;2023-03-14T03:46:46;97340.99;;;8.27;100.00
67373;BME280;54257;54.496;18.412;2023-03-14T03:49:13;97340.15;;;8.26;100.00
67373;BME280;54257;54.496;18.412;2023-03-14T03:51:43;97328.42;;;8.26;100.00
67373;BME280;54257;54.496;18.412;2023-03-14T03:54:10;97320.95;;;8.25;100.00
67373;BME280;54257;54.496;18.412;2023-03-14T03:56:37;97323.84;;;8.26;100.00
67373;BME280;54257;54.496;18.412;2023-03-14T03:59:04;97326.07;;;8.25;100.00
67373;BME280;54257;54.496;18.412;2023-03-14T04:01:31;97328.48;;;8.23;100.00
67373;BME280;54257;54.496;18.412;2023-03-14T04:03:58;97329.50;;;8.23;100.00
67373;BME280;54257;54.496;18.412;2023-03-14T04:06:25;97325.27;;;8.21;100.00
67373;BME280;54257;54.496;18.412;2023-03-14T04:08:53;97317.14;;;8.20;100.00
67373;BME280;54257;54.496;18.412;2023-03-14T04:11:20;97313.45;;;8.17;100.00
67373;BME280;54257;54.496;18.412;2023-03-14T04:13:47;97311.93;;;8.16;100.00
67373;BME280;54257;54.496;18.412;2023-03-14T04:16:20;97319.95;;;8.14;100.00
67373;BME280;54257;54.496;18.412;2023-03-14T04:18:47;97316.74;;;8.12;100.00
67373;BME280;54257;54.496;18.412;2023-03-14T04:21:18;97305.79;;;8.07;100.00
67373;BME280;54257;54.496;18.412;2023-03-14T04:23:45;97306.34;;;8.04;100.00
67373;BME280;54257;54.496;18.412;2023-03-14T04:26:12;97295.00;;;8.01;100.00
67373;BME280;54257;54.496;18.412;2023-03-14T04:28:39;97281.62;;;7.99;100.00
67373;BME280;54257;54.496;18.412;2023-03-14T04:31:08;97272.31;;;7.96;100.00
67373;BME280;54257;54.496;18.412;2023-03-14T04:33:35;97271.33;;;7.94;100.00
67373;BME280;54257;54.496;18.412;2023-03-14T04:36:26;97278.85;;;7.92;100.00
67373;BME280;54257;54.496;18.412;2023-03-14T04:38:53;97279.88;;;7.91;100.00
67373;BME280;54257;54.496;18.412;2023-03-14T04:41:20;97274.10;;;7.92;100.00
67373;BME280;54257;54.496;18.412;2023-03-14T04:43:47;97271.55;;;7.91;100.00
67373;BME280;54257;54.496;18.412;2023-03-14T04:46:13;97256.43;;;7.91;100.00
67373;BME280;54257;54.496;18.412;2023-03-14T04:48:41;97246.59;;;7.90;100.00
67373;BME280;54257;54.496;18.412;2023-03-14T04:51:08;97248.11;;;7.90;100.00
67373;BME280;54257;54.496;18.412;2023-03-14T04:53:35;97245.58;;;7.88;100.00
67373;BME280;54257;54.496;18.412;2023-03-14T04:56:03;97239.17;;;7.86;100.00
67373;BME280;54257;54.496;18.412;2023-03-14T04:58:31;97235.61;;;7.86;100.00
67373;BME280;54257;54.496;18.412;2023-03-14T05:01:04;97241.08;;;7.84;100.00
67373;BME280;54257;54.496;18.412;2023-03-14T05:03:31;97235.81;;;7.84;100.00
67373;BME280;54257;54.496;18.412;2023-03-14T05:05:58;97231.57;;;7.84;100.00
67373;BME280;54257;54.496;18.412;2023-03-14T05:08:25;97230.73;;;7.83;100.00
67373;BME280;54257;54.496;18.412;2023-03-14T05:10:53;97227.00;;;7.83;100.00
67373;BME280;54257;54.496;18.412;2023-03-14T05:13:21;97223.06;;;7.84;100.00
67373;BME280;54257;54.496;18.412;2023-03-14T05:15:48;97223.94;;;7.83;100.00
67373;BME280;54257;54.496;18.412;2023-03-14T05:18:17;97223.94;;;7.83;100.00
67373;BME280;54257;54.496;18.412;2023-03-14T05:20:45;97220.04;;;7.83;100.00
67373;BME280;54257;54.496;18.412;2023-03-14T05:23:12;97208.30;;;7.83;100.00
67373;BME280;54257;54.496;18.412;2023-03-14T05:25:39;97197.60;;;7.84;100.00
67373;BME280;54257;54.496;18.412;2023-03-14T05:28:06;97192.00;;;7.82;100.00
67373;BME280;54257;54.496;18.412;2023-03-14T05:30:33;97200.52;;;7.82;100.00
67373;BME280;54257;54.496;18.412;2023-03-14T05:33:00;97199.16;;;7.82;100.00
67373;BME280;54257;54.496;18.412;2023-03-14T05:35:27;97200.17;;;7.82;100.00
67373;BME280;54257;54.496;18.412;2023-03-14T05:37:54;97207.48;;;7.81;100.00
67373;BME280;54257;54.496;18.412;2023-03-14T05:40:21;97209.34;;;7.81;100.00
67373;BME280;54257;54.496;18.412;2023-03-14T05:42:48;97216.14;;;7.81;100.00
67373;BME280;54257;54.496;18.412;2023-03-14T05:45:15;97218.70;;;7.81;100.00
67373;BME280;54257;54.496;18.412;2023-03-14T05:47:42;97227.54;;;7.80;100.00
67373;BME280;54257;54.496;18.412;2023-03-14T05:50:09;97236.56;;;7.79;100.00
67373;BME280;54257;54.496;18.412;2023-03-14T05:52:36;97242.54;;;7.78;100.00
67373;BME280;54257;54.496;18.412;2023-03-14T05:55:04;97246.31;;;7.76;100.00
67373;BME280;54257;54.496;18.412;2023-03-14T05:57:32;97249.25;;;7.73;100.00
67373;BME280;54257;54.496;18.412;2023-03-14T05:59:59;97241.96;;;7.71;100.00
67373;BME280;54257;54.496;18.412;2023-03-14T06:02:26;97245.02;;;7.71;100.00
67373;BME280;54257;54.496;18.412;2023-03-14T06:04:53;97240.61;;;7.71;100.00
67373;BME280;54257;54.496;18.412;2023-03-14T06:07:20;97247.73;;;7.72;100.00
67373;BME280;54257;54.496;18.412;2023-03-14T06:09:47;97251.80;;;7.72;100.00
67373;BME280;54257;54.496;18.412;2023-03-14T06:12:14;97244.48;;;7.73;100.00
67373;BME280;54257;54.496;18.412;2023-03-14T06:14:42;97242.63;;;7.73;100.00
67373;BME280;54257;54.496;18.412;2023-03-14T06:17:10;97249.08;;;7.73;100.00
67373;BME280;54257;54.496;18.412;2023-03-14T06:19:39;97256.70;;;7.73;100.00
67373;BME280;54257;54.496;18.412;2023-03-14T06:22:06;97258.73;;;7.75;100.00
67373;BME280;54257;54.496;18.412;2023-03-14T06:24:35;97258.20;;;7.77;100.00
67373;BME280;54257;54.496;18.412;2023-03-14T06:27:06;97253.55;;;7.79;100.00
67373;BME280;54257;54.496;18.412;2023-03-14T06:29:40;97237.91;;;7.80;100.00
67373;BME280;54257;54.496;18.412;2023-03-14T06:32:13;97232.77;;;7.83;100.00
67373;BME280;54257;54.496;18.412;2023-03-14T06:34:43;97227.93;;;7.87;100.00
67373;BME280;54257;54.496;18.412;2023-03-14T06:37:10;97249.14;;;7.88;100.00
67373;BME280;54257;54.496;18.412;2023-03-14T06:39:39;97249.64;;;7.91;100.00
67373;BME280;54257;54.496;18.412;2023-03-14T06:42:06;97238.88;;;7.94;100.00
67373;BME280;54257;54.496;18.412;2023-03-14T06:44:34;97238.83;;;7.96;100.00
67373;BME280;54257;54.496;18.412;2023-03-14T06:47:04;97243.23;;;7.98;100.00
67373;BME280;54257;54.496;18.412;2023-03-14T06:49:33;97248.98;;;8.00;100.00
67373;BME280;54257;54.496;18.412;2023-03-14T06:52:00;97246.52;;;8.03;100.00
67373;BME280;54257;54.496;18.412;2023-03-14T06:54:27;97246.45;;;8.07;100.00
67373;BME280;54257;54.496;18.412;2023-03-14T06:56:55;97247.91;;;8.11;100.00
67373;BME280;54257;54.496;18.412;2023-03-14T06:59:22;97246.49;;;8.15;100.00
67373;BME280;54257;54.496;18.412;2023-03-14T07:01:49;97237.07;;;8.19;100.00
67373;BME280;54257;54.496;18.412;2023-03-14T07:04:17;97245.82;;;8.24;100.00
67373;BME280;54257;54.496;18.412;2023-03-14T07:06:44;97246.23;;;8.29;100.00
67373;BME280;54257;54.496;18.412;2023-03-14T07:09:16;97243.27;;;8.34;100.00
67373;BME280;54257;54.496;18.412;2023-03-14T07:11:45;97246.75;;;8.39;100.00
67373;BME280;54257;54.496;18.412;2023-03-14T07:14:12;97249.52;;;8.45;100.00
67373;BME280;54257;54.496;18.412;2023-03-14T07:16:39;97253.81;;;8.53;100.00
67373;BME280;54257;54.496;18.412;2023-03-14T07:19:06;97258.98;;;8.59;100.00
67373;BME280;54257;54.496;18.412;2023-03-14T07:21:33;97262.59;;;8.65;100.00
67373;BME280;54257;54.496;18.412;2023-03-14T07:24:01;97254.82;;;8.71;100.00
67373;BME280;54257;54.496;18.412;2023-03-14T07:26:29;97242.45;;;8.76;100.00
67373;BME280;54257;54.496;18.412;2023-03-14T07:28:56;97237.58;;;8.81;100.00
67373;BME280;54257;54.496;18.412;2023-03-14T07:31:23;97233.20;;;8.87;100.00
67373;BME280;54257;54.496;18.412;2023-03-14T07:33:51;97228.67;;;8.92;100.00
67373;BME280;54257;54.496;18.412;2023-03-14T07:36:19;97222.05;;;8.99;100.00
67373;BME280;54257;54.496;18.412;2023-03-14T07:38:46;97211.02;;;9.06;100.00
67373;BME280;54257;54.496;18.412;2023-03-14T07:41:14;97209.12;;;9.14;100.00
67373;BME280;54257;54.496;18.412;2023-03-14T07:43:41;97206.70;;;9.23;100.00
67373;BME280;54257;54.496;18.412;2023-03-14T07:46:08;97198.96;;;9.34;100.00
67373;BME280;54257;54.496;18.412;2023-03-14T07:48:35;97198.48;;;9.47;100.00
67373;BME280;54257;54.496;18.412;2023-03-14T07:51:03;97193.77;;;9.59;100.00
67373;BME280;54257;54.496;18.412;2023-03-14T07:53:30;97195.10;;;9.67;100.00
67373;BME280;54257;54.496;18.412;2023-03-14T07:55:57;97201.72;;;9.74;100.00
67373;BME280;54257;54.496;18.412;2023-03-14T07:58:24;97199.63;;;9.83;100.00
67373;BME280;54257;54.496;18.412;2023-03-14T08:00:52;97194.27;;;9.93;100.00
67373;BME280;54257;54.496;18.412;2023-03-14T08:03:19;97192.98;;;10.03;100.00
67373;BME280;54257;54.496;18.412;2023-03-14T08:05:49;97189.36;;;10.10;100.00
67373;BME280;54257;54.496;18.412;2023-03-14T08:08:18;97190.31;;;10.14;100.00
67373;BME280;54257;54.496;18.412;2023-03-14T08:10:45;97188.42;;;10.21;100.00
67373;BME280;54257;54.496;18.412;2023-03-14T08:13:13;97180.81;;;10.25;100.00
67373;BME280;54257;54.496;18.412;2023-03-14T08:15:40;97178.85;;;10.29;100.00
67373;BME280;54257;54.496;18.412;2023-03-14T08:18:09;97179.70;;;10.29;100.00
67373;BME280;54257;54.496;18.412;2023-03-14T08:20:36;97177.83;;;10.28;100.00
67373;BME280;54257;54.496;18.412;2023-03-14T08:23:04;97167.94;;;10.28;100.00
67373;BME280;54257;54.496;18.412;2023-03-14T08:25:31;97161.56;;;10.31;100.00
67373;BME280;54257;54.496;18.412;2023-03-14T08:27:58;97161.45;;;10.35;100.00
67373;BME280;54257;54.496;18.412;2023-03-14T08:30:25;97161.23;;;10.42;100.00
67373;BME280;54257;54.496;18.412;2023-03-14T08:32:52;97160.02;;;10.49;100.00
67373;BME280;54257;54.496;18.412;2023-03-14T08:35:19;97163.20;;;10.51;100.00
67373;BME280;54257;54.496;18.412;2023-03-14T08:37:46;97163.39;;;10.50;100.00
67373;BME280;54257;54.496;18.412;2023-03-14T08:40:14;97156.92;;;10.50;100.00
67373;BME280;54257;54.496;18.412;2023-03-14T08:42:42;97151.98;;;10.49;100.00
67373;BME280;54257;54.496;18.412;2023-03-14T08:45:12;97162.09;;;10.48;100.00
67373;BME280;54257;54.496;18.412;2023-03-14T08:47:39;97163.99;;;10.47;100.00
67373;BME280;54257;54.496;18.412;2023-03-14T08:50:07;97163.63;;;10.48;100.00
67373;BME280;54257;54.496;18.412;2023-03-14T08:52:36;97154.80;;;10.46;100.00
67373;BME280;54257;54.496;18.412;2023-03-14T08:55:04;97157.00;;;10.47;100.00
67373;BME280;54257;54.496;18.412;2023-03-14T08:57:31;97166.90;;;10.47;100.00
67373;BME280;54257;54.496;18.412;2023-03-14T08:59:58;97174.92;;;10.47;100.00
67373;BME280;54257;54.496;18.412;2023-03-14T09:02:25;97181.55;;;10.48;100.00
67373;BME280;54257;54.496;18.412;2023-03-14T09:04:53;97185.98;;;10.48;100.00
67373;BME280;54257;54.496;18.412;2023-03-14T09:07:20;97184.38;;;10.51;100.00
67373;BME280;54257;54.496;18.412;2023-03-14T09:09:47;97191.12;;;10.53;100.00
67373;BME280;54257;54.496;18.412;2023-03-14T09:12:14;97184.95;;;10.54;100.00
67373;BME280;54257;54.496;18.412;2023-03-14T09:14:43;97182.72;;;10.54;100.00
67373;BME280;54257;54.496;18.412;2023-03-14T09:17:10;97174.54;;;10.55;100.00
67373;BME280;54257;54.496;18.412;2023-03-14T09:19:37;97179.11;;;10.55;100.00
67373;BME280;54257;54.496;18.412;2023-03-14T09:22:04;97182.16;;;10.56;100.00
67373;BME280;54257;54.496;18.412;2023-03-14T09:24:31;97177.70;;;10.56;100.00
67373;BME280;54257;54.496;18.412;2023-03-14T09:26:58;97182.54;;;10.55;100.00
67373;BME280;54257;54.496;18.412;2023-03-14T09:29:25;97191.40;;;10.56;100.00
67373;BME280;54257;54.496;18.412;2023-03-14T09:31:52;97199.27;;;10.55;100.00
67373;BME280;54257;54.496;18.412;2023-03-14T09:34:19;97197.06;;;10.54;100.00
67373;BME280;54257;54.496;18.412;2023-03-14T09:36:46;97195.52;;;10.55;100.00
67373;BME280;54257;54.496;18.412;2023-03-14T09:39:13;97197.82;;;10.57;100.00
67373;BME280;54257;54.496;18.412;2023-03-14T09:41:43;97206.81;;;10.60;100.00
67373;BME280;54257;54.496;18.412;2023-03-14T09:44:35;97206.27;;;10.61;100.00
67373;BME280;54257;54.496;18.412;2023-03-14T09:47:06;97191.34;;;10.63;100.00
67373;BME280;54257;54.496;18.412;2023-03-14T09:49:37;97169.73;;;10.67;100.00
67373;BME280;54257;54.496;18.412;2023-03-14T09:52:14;97178.59;;;10.73;100.00
67373;BME280;54257;54.496;18.412;2023-03-14T09:54:45;97203.41;;;10.78;99.98
67373;BME280;54257;54.496;18.412;2023-03-14T09:57:19;97199.43;;;10.79;99.61
67373;BME280;54257;54.496;18.412;2023-03-14T09:59:48;97190.34;;;10.80;99.38
67373;BME280;54257;54.496;18.412;2023-03-14T10:02:24;97178.33;;;10.83;99.43
67373;BME280;54257;54.496;18.412;2023-03-14T10:04:54;97171.27;;;10.90;99.77
67373;BME280;54257;54.496;18.412;2023-03-14T10:07:27;97179.58;;;10.98;99.72
67373;BME280;54257;54.496;18.412;2023-03-14T10:09:56;97173.61;;;11.09;98.70
67373;BME280;54257;54.496;18.412;2023-03-14T10:12:37;97179.05;;;11.21;98.62
67373;BME280;54257;54.496;18.412;2023-03-14T10:15:11;97181.65;;;11.36;97.82
67373;BME280;54257;54.496;18.412;2023-03-14T10:17:39;97179.66;;;11.60;97.91
67373;BME280;54257;54.496;18.412;2023-03-14T10:20:50;97174.73;;;11.74;97.05
67373;BME280;54257;54.496;18.412;2023-03-14T10:25:45;97189.61;;;11.80;93.31
67373;BME280;54257;54.496;18.412;2023-03-14T10:28:26;97187.86;;;11.83;94.22
67373;BME280;54257;54.496;18.412;2023-03-14T10:30:58;97186.89;;;11.80;93.53
67373;BME280;54257;54.496;18.412;2023-03-14T10:33:26;97182.83;;;11.78;93.40
67373;BME280;54257;54.496;18.412;2023-03-14T10:36:02;97177.08;;;11.76;93.16
67373;BME280;54257;54.496;18.412;2023-03-14T10:38:35;97186.73;;;11.74;93.00
67373;BME280;54257;54.496;18.412;2023-03-14T10:41:15;97195.61;;;11.74;93.08
67373;BME280;54257;54.496;18.412;2023-03-14T10:43:43;97195.95;;;11.74;93.01
67373;BME280;54257;54.496;18.412;2023-03-14T10:46:18;97195.20;;;11.71;92.45
67373;BME280;54257;54.496;18.412;2023-03-14T10:48:45;97196.52;;;11.68;92.17
67373;BME280;54257;54.496;18.412;2023-03-14T10:51:49;97193.98;;;11.67;92.39
67373;BME280;54257;54.496;18.412;2023-03-14T10:54:15;97190.89;;;11.67;92.53
67373;BME280;54257;54.496;18.412;2023-03-14T10:56:58;97184.73;;;11.67;92.73
67373;BME280;54257;54.496;18.412;2023-03-14T10:59:37;97172.58;;;11.73;92.90
67373;BME280;54257;54.496;18.412;2023-03-14T11:07:40;97148.73;;;11.96;92.10
67373;BME280;54257;54.496;18.412;2023-03-14T11:10:24;97152.98;;;12.01;91.32
67373;BME280;54257;54.496;18.412;2023-03-14T11:15:38;97154.05;;;12.10;90.09
67373;BME280;54257;54.496;18.412;2023-03-14T11:18:36;97146.46;;;12.12;90.41
67373;BME280;54257;54.496;18.412;2023-03-14T11:21:12;97144.77;;;12.11;89.60
67373;BME280;54257;54.496;18.412;2023-03-14T11:26:25;97144.98;;;12.05;89.23
67373;BME280;54257;54.496;18.412;2023-03-14T11:31:38;97144.33;;;11.95;88.92
67373;BME280;54257;54.496;18.412;2023-03-14T11:34:28;97142.02;;;11.87;88.64
67373;BME280;54257;54.496;18.412;2023-03-14T11:39:39;97142.37;;;11.76;89.38
67373;BME280;54257;54.496;18.412;2023-03-14T11:42:17;97140.81;;;11.71;89.56
67373;BME280;54257;54.496;18.412;2023-03-14T11:44:46;97136.39;;;11.70;90.08
67373;BME280;54257;54.496;18.412;2023-03-14T11:49:51;97138.70;;;11.68;90.07
67373;BME280;54257;54.496;18.412;2023-03-14T11:52:35;97141.11;;;11.68;90.30
67373;BME280;54257;54.496;18.412;2023-03-14T11:58:02;97134.80;;;11.68;90.77
67373;BME280;54257;54.496;18.412;2023-03-14T12:00:35;97134.32;;;11.82;91.18
67373;BME280;54257;54.496;18.412;2023-03-14T12:11:10;97139.02;;;12.14;89.01
67373;BME280;54257;54.496;18.412;2023-03-14T12:13:39;97138.60;;;12.16;88.31
67373;BME280;54257;54.496;18.412;2023-03-14T12:16:20;97138.14;;;12.19;88.03
67373;BME280;54257;54.496;18.412;2023-03-14T12:18:52;97140.66;;;12.26;87.61
67373;BME280;54257;54.496;18.412;2023-03-14T12:21:20;97143.08;;;12.25;87.01
67373;BME280;54257;54.496;18.412;2023-03-14T12:23:50;97145.29;;;12.21;86.49
67373;BME280;54257;54.496;18.412;2023-03-14T12:29:38;97142.89;;;12.21;87.19
67373;BME280;54257;54.496;18.412;2023-03-14T12:31:45;97132.86;;;12.33;86.68
67373;BME280;54257;54.496;18.412;2023-03-14T12:42:38;97121.27;;;12.78;85.99
67373;BME280;54257;54.496;18.412;2023-03-14T12:45:32;97123.61;;;12.92;84.41
67373;BME280;54257;54.496;18.412;2023-03-14T12:48:10;97121.61;;;12.95;84.06
67373;BME280;54257;54.496;18.412;2023-03-14T12:50:52;97121.45;;;12.95;83.45
67373;BME280;54257;54.496;18.412;2023-03-14T12:56:35;97121.18;;;12.88;83.02
67373;BME280;54257;54.496;18.412;2023-03-14T13:02:02;97119.45;;;12.67;82.47
67373;BME280;54257;54.496;18.412;2023-03-14T13:05:00;97125.23;;;12.67;82.97
67373;BME280;54257;54.496;18.412;2023-03-14T13:10:31;97120.92;;;12.78;82.76
67373;BME280;54257;54.496;18.412;2023-03-14T13:13:17;97118.71;;;12.77;82.82
67373;BME280;54257;54.496;18.412;2023-03-14T13:15:46;97118.95;;;12.80;82.99
67373;BME280;54257;54.496;18.412;2023-03-14T13:18:17;97118.88;;;12.82;82.86
67373;BME280;54257;54.496;18.412;2023-03-14T13:20:59;97117.35;;;12.81;81.99
67373;BME280;54257;54.496;18.412;2023-03-14T13:23:32;97118.29;;;12.80;82.36
67373;BME280;54257;54.496;18.412;2023-03-14T13:26:01;97113.09;;;12.81;82.01
67373;BME280;54257;54.496;18.412;2023-03-14T13:28:29;97110.00;;;12.77;81.59
67373;BME280;54257;54.496;18.412;2023-03-14T13:31:00;97112.68;;;12.74;81.77
67373;BME280;54257;54.496;18.412;2023-03-14T13:33:27;97107.73;;;12.69;81.80
67373;BME280;54257;54.496;18.412;2023-03-14T13:36:02;97111.20;;;12.63;81.83
67373;BME280;54257;54.496;18.412;2023-03-14T13:38:32;97108.42;;;12.64;82.45
67373;BME280;54257;54.496;18.412;2023-03-14T13:41:03;97112.08;;;12.72;82.19
67373;BME280;54257;54.496;18.412;2023-03-14T13:43:36;97113.27;;;12.72;81.40
67373;BME280;54257;54.496;18.412;2023-03-14T13:46:12;97114.15;;;12.71;81.56
67373;BME280;54257;54.496;18.412;2023-03-14T13:48:58;97114.69;;;12.79;81.45
67373;BME280;54257;54.496;18.412;2023-03-14T13:51:26;97111.91;;;12.89;80.86
67373;BME280;54257;54.496;18.412;2023-03-14T13:53:58;97112.73;;;12.95;80.00
67373;BME280;54257;54.496;18.412;2023-03-14T13:56:32;97111.52;;;13.08;79.70
67373;BME280;54257;54.496;18.412;2023-03-14T13:58:59;97114.65;;;13.11;78.65
67373;BME280;54257;54.496;18.412;2023-03-14T14:01:31;97112.63;;;13.06;79.40
67373;BME280;54257;54.496;18.412;2023-03-14T14:04:14;97111.77;;;13.01;79.22
67373;BME280;54257;54.496;18.412;2023-03-14T14:06:46;97108.38;;;13.09;79.51